sensor_id;sensor_type;location;lat;lon;timestamp;temperature;humidity
23717;DHT22;22094;52.130;5.598;2022-11-04T00:01:41;10.90;99.90
23717;DHT22;22094;52.130;5.598;2022-11-04T00:04:08;10.90;99.90
23717;DHT22;22094;52.130;5.598;2022-11-04T00:06:35;11.00;99.90
23717;DHT22;22094;52.130;5.598;2022-11-04T00:09:00;10.90;99.90
23717;DHT22;22094;52.130;5.598;2022-11-04T00:11:27;11.00;99.90
23717;DHT22;22094;52.130;5.598;2022-11-04T00:14:11;11.00;99.90
23717;DHT22;22094;52.130;5.598;2022-11-04T00:16:38;10.90;99.90
23717;DHT22;22094;52.130;5.598;2022-11-04T00:19:22;10.90;99.90
23717;DHT22;22094;52.130;5.598;2022-11-04T00:21:48;10.80;99.90
23717;DHT22;22094;52.130;5.598;2022-11-04T00:24:32;10.80;99.90
23717;DHT22;22094;52.130;5.598;2022-11-04T00:27:15;10.90;99.90
23717;DHT22;22094;52.130;5.598;2022-11-04T00:30:00;10.80;99.90
23717;DHT22;22094;52.130;5.598;2022-11-04T00:32:26;10.80;99.90
23717;DHT22;22094;52.130;5.598;2022-11-04T00:35:11;10.90;99.90
23717;DHT22;22094;52.130;5.598;2022-11-04T00:37:38;10.80;99.90
23717;DHT22;22094;52.130;5.598;2022-11-04T00:40:05;11.00;99.90
23717;DHT22;22094;52.130;5.598;2022-11-04T00:42:31;10.80;99.90
23717;DHT22;22094;52.130;5.598;2022-11-04T00:44:56;10.80;99.90
23717;DHT22;22094;52.130;5.598;2022-11-04T00:47:22;10.80;99.90
23717;DHT22;22094;52.130;5.598;2022-11-04T00:49:47;10.70;99.90
23717;DHT22;22094;52.130;5.598;2022-11-04T00:52:13;10.80;99.90
23717;DHT22;22094;52.130;5.598;2022-11-04T00:54:39;10.80;99.90
23717;DHT22;22094;52.130;5.598;2022-11-04T00:57:04;10.80;99.90
23717;DHT22;22094;52.130;5.598;2022-11-04T00:59:30;10.80;99.90
23717;DHT22;22094;52.130;5.598;2022-11-04T01:01:55;10.80;99.90
23717;DHT22;22094;52.130;5.598;2022-11-04T01:04:21;10.80;99.90
23717;DHT22;22094;52.130;5.598;2022-11-04T01:06:46;10.80;99.90
23717;DHT22;22094;52.130;5.598;2022-11-04T01:09:12;10.80;99.90
23717;DHT22;22094;52.130;5.598;2022-11-04T01:11:38;10.80;99.90
23717;DHT22;22094;52.130;5.598;2022-11-04T01:14:04;10.70;99.90
23717;DHT22;22094;52.130;5.598;2022-11-04T01:16:30;10.70;99.90
23717;DHT22;22094;52.130;5.598;2022-11-04T01:18:56;10.60;99.90
23717;DHT22;22094;52.130;5.598;2022-11-04T01:21:21;10.50;99.90
23717;DHT22;22094;52.130;5.598;2022-11-04T01:23:47;10.40;99.90
23717;DHT22;22094;52.130;5.598;2022-11-04T01:26:18;10.30;99.90
23717;DHT22;22094;52.130;5.598;2022-11-04T01:28:44;10.30;99.90
23717;DHT22;22094;52.130;5.598;2022-11-04T01:31:15;10.30;99.90
23717;DHT22;22094;52.130;5.598;2022-11-04T01:33:40;10.30;99.90
23717;DHT22;22094;52.130;5.598;2022-11-04T01:36:07;10.30;99.90
23717;DHT22;22094;52.130;5.598;2022-11-04T01:38:33;10.30;99.90
23717;DHT22;22094;52.130;5.598;2022-11-04T01:40:59;10.50;99.90
23717;DHT22;22094;52.130;5.598;2022-11-04T01:44:00;10.30;99.90
23717;DHT22;22094;52.130;5.598;2022-11-04T01:46:36;10.30;99.90
23717;DHT22;22094;52.130;5.598;2022-11-04T01:49:25;10.30;99.90
23717;DHT22;22094;52.130;5.598;2022-11-04T01:52:00;10.20;99.90
23717;DHT22;22094;52.130;5.598;2022-11-04T01:54:27;10.20;99.90
23717;DHT22;22094;52.130;5.598;2022-11-04T01:56:54;10.10;99.90
23717;DHT22;22094;52.130;5.598;2022-11-04T01:59:23;10.10;99.90
23717;DHT22;22094;52.130;5.598;2022-11-04T02:01:50;10.10;99.90
23717;DHT22;22094;52.130;5.598;2022-11-04T02:04:17;10.10;99.90
23717;DHT22;22094;52.130;5.598;2022-11-04T02:06:54;10.10;99.90
23717;DHT22;22094;52.130;5.598;2022-11-04T02:09:22;10.10;99.90
23717;DHT22;22094;52.130;5.598;2022-11-04T02:11:48;10.00;99.90
23717;DHT22;22094;52.130;5.598;2022-11-04T02:14:33;10.00;99.90
23717;DHT22;22094;52.130;5.598;2022-11-04T02:17:27;10.00;99.90
23717;DHT22;22094;52.130;5.598;2022-11-04T02:31:53;9.80;99.90
23717;DHT22;22094;52.130;5.598;2022-11-04T02:34:49;9.70;99.90
23717;DHT22;22094;52.130;5.598;2022-11-04T02:39:50;9.70;99.90
23717;DHT22;22094;52.130;5.598;2022-11-04T02:47:32;9.60;99.90
23717;DHT22;22094;52.130;5.598;2022-11-04T02:50:09;9.50;99.90
23717;DHT22;22094;52.130;5.598;2022-11-04T02:55:44;9.50;99.90
23717;DHT22;22094;52.130;5.598;2022-11-04T02:58:20;9.50;99.90
23717;DHT22;22094;52.130;5.598;2022-11-04T03:00:50;9.50;99.90
23717;DHT22;22094;52.130;5.598;2022-11-04T03:03:24;9.50;99.90
23717;DHT22;22094;52.130;5.598;2022-11-04T03:05:52;9.50;99.90
23717;DHT22;22094;52.130;5.598;2022-11-04T03:08:29;9.50;99.90
23717;DHT22;22094;52.130;5.598;2022-11-04T03:11:22;9.50;99.90
23717;DHT22;22094;52.130;5.598;2022-11-04T03:14:14;9.50;99.90
23717;DHT22;22094;52.130;5.598;2022-11-04T03:19:22;9.50;99.90
23717;DHT22;22094;52.130;5.598;2022-11-04T03:21:58;9.50;99.90
23717;DHT22;22094;52.130;5.598;2022-11-04T03:24:24;9.50;99.90
23717;DHT22;22094;52.130;5.598;2022-11-04T03:26:57;9.50;99.90
23717;DHT22;22094;52.130;5.598;2022-11-04T03:29:33;9.50;99.90
23717;DHT22;22094;52.130;5.598;2022-11-04T03:32:11;9.50;99.90
23717;DHT22;22094;52.130;5.598;2022-11-04T03:34:39;9.40;99.90
23717;DHT22;22094;52.130;5.598;2022-11-04T03:37:05;9.40;99.90
23717;DHT22;22094;52.130;5.598;2022-11-04T03:39:31;9.30;99.90
23717;DHT22;22094;52.130;5.598;2022-11-04T03:41:59;9.30;99.90
23717;DHT22;22094;52.130;5.598;2022-11-04T03:44:28;9.20;99.90
23717;DHT22;22094;52.130;5.598;2022-11-04T03:46:54;9.30;99.90
23717;DHT22;22094;52.130;5.598;2022-11-04T03:49:21;9.00;99.90
23717;DHT22;22094;52.130;5.598;2022-11-04T03:51:48;9.00;99.90
23717;DHT22;22094;52.130;5.598;2022-11-04T03:54:14;8.90;99.90
23717;DHT22;22094;52.130;5.598;2022-11-04T03:56:53;8.80;99.90
23717;DHT22;22094;52.130;5.598;2022-11-04T04:04:55;8.90;99.90
23717;DHT22;22094;52.130;5.598;2022-11-04T04:07:36;8.80;99.90
23717;DHT22;22094;52.130;5.598;2022-11-04T04:10:15;8.80;99.90
23717;DHT22;22094;52.130;5.598;2022-11-04T04:13:04;8.70;99.90
23717;DHT22;22094;52.130;5.598;2022-11-04T04:15:43;8.60;99.90
23717;DHT22;22094;52.130;5.598;2022-11-04T04:18:16;8.60;99.90
23717;DHT22;22094;52.130;5.598;2022-11-04T04:20:44;8.50;99.90
23717;DHT22;22094;52.130;5.598;2022-11-04T04:23:17;8.50;99.90
23717;DHT22;22094;52.130;5.598;2022-11-04T04:26:05;8.50;99.90
23717;DHT22;22094;52.130;5.598;2022-11-04T04:28:52;8.60;99.90
23717;DHT22;22094;52.130;5.598;2022-11-04T04:31:19;8.70;99.90
23717;DHT22;22094;52.130;5.598;2022-11-04T04:34:05;8.80;99.90
23717;DHT22;22094;52.130;5.598;2022-11-04T04:36:33;8.90;99.90
23717;DHT22;22094;52.130;5.598;2022-11-04T04:39:03;8.90;99.90
23717;DHT22;22094;52.130;5.598;2022-11-04T04:41:49;8.90;99.90
23717;DHT22;22094;52.130;5.598;2022-11-04T04:44:33;8.90;99.90
23717;DHT22;22094;52.130;5.598;2022-11-04T04:47:21;8.90;99.90
23717;DHT22;22094;52.130;5.598;2022-11-04T04:49:58;8.80;99.90
23717;DHT22;22094;52.130;5.598;2022-11-04T04:52:30;8.90;99.90
23717;DHT22;22094;52.130;5.598;2022-11-04T04:54:55;8.90;99.90
23717;DHT22;22094;52.130;5.598;2022-11-04T04:57:21;8.80;99.90
23717;DHT22;22094;52.130;5.598;2022-11-04T04:59:47;8.80;99.90
23717;DHT22;22094;52.130;5.598;2022-11-04T05:02:12;8.60;99.90
23717;DHT22;22094;52.130;5.598;2022-11-04T05:04:38;8.60;99.90
23717;DHT22;22094;52.130;5.598;2022-11-04T05:07:04;8.50;99.90
23717;DHT22;22094;52.130;5.598;2022-11-04T05:09:31;8.40;99.90
23717;DHT22;22094;52.130;5.598;2022-11-04T05:11:56;8.40;99.90
23717;DHT22;22094;52.130;5.598;2022-11-04T05:14:22;8.30;99.90
23717;DHT22;22094;52.130;5.598;2022-11-04T05:16:48;8.20;99.90
23717;DHT22;22094;52.130;5.598;2022-11-04T05:19:13;8.10;99.90
23717;DHT22;22094;52.130;5.598;2022-11-04T05:21:39;8.10;99.90
23717;DHT22;22094;52.130;5.598;2022-11-04T05:24:04;8.00;99.90
23717;DHT22;22094;52.130;5.598;2022-11-04T05:26:30;8.00;99.90
23717;DHT22;22094;52.130;5.598;2022-11-04T05:28:55;7.90;99.90
23717;DHT22;22094;52.130;5.598;2022-11-04T05:31:21;7.80;99.90
23717;DHT22;22094;52.130;5.598;2022-11-04T05:33:47;7.80;99.90
23717;DHT22;22094;52.130;5.598;2022-11-04T05:36:14;7.60;99.90
23717;DHT22;22094;52.130;5.598;2022-11-04T05:38:40;7.50;99.90
23717;DHT22;22094;52.130;5.598;2022-11-04T05:41:08;7.50;99.90
23717;DHT22;22094;52.130;5.598;2022-11-04T05:43:34;7.50;99.90
23717;DHT22;22094;52.130;5.598;2022-11-04T05:46:00;7.50;99.90
23717;DHT22;22094;52.130;5.598;2022-11-04T05:48:26;7.50;99.90
23717;DHT22;22094;52.130;5.598;2022-11-04T05:50:53;7.50;99.90
23717;DHT22;22094;52.130;5.598;2022-11-04T05:53:18;7.40;99.90
23717;DHT22;22094;52.130;5.598;2022-11-04T05:55:44;7.30;99.90
23717;DHT22;22094;52.130;5.598;2022-11-04T05:58:10;7.30;99.90
23717;DHT22;22094;52.130;5.598;2022-11-04T06:00:35;7.20;99.90
23717;DHT22;22094;52.130;5.598;2022-11-04T06:03:04;7.20;99.90
23717;DHT22;22094;52.130;5.598;2022-11-04T06:05:29;7.20;99.90
23717;DHT22;22094;52.130;5.598;2022-11-04T06:07:55;7.20;99.90
23717;DHT22;22094;52.130;5.598;2022-11-04T06:10:21;7.10;99.90
23717;DHT22;22094;52.130;5.598;2022-11-04T06:12:47;7.10;99.90
23717;DHT22;22094;52.130;5.598;2022-11-04T06:15:13;7.00;99.90
23717;DHT22;22094;52.130;5.598;2022-11-04T06:17:38;7.00;99.90
23717;DHT22;22094;52.130;5.598;2022-11-04T06:20:04;6.90;99.90
23717;DHT22;22094;52.130;5.598;2022-11-04T06:22:30;6.90;99.90
23717;DHT22;22094;52.130;5.598;2022-11-04T06:24:56;6.80;99.90
23717;DHT22;22094;52.130;5.598;2022-11-04T06:27:22;6.90;99.90
23717;DHT22;22094;52.130;5.598;2022-11-04T06:29:47;6.90;99.90
23717;DHT22;22094;52.130;5.598;2022-11-04T06:32:15;7.00;99.90
23717;DHT22;22094;52.130;5.598;2022-11-04T06:34:42;7.10;99.90
23717;DHT22;22094;52.130;5.598;2022-11-04T06:37:08;7.20;99.90
23717;DHT22;22094;52.130;5.598;2022-11-04T06:39:34;7.30;99.90
23717;DHT22;22094;52.130;5.598;2022-11-04T06:42:00;7.50;99.90
23717;DHT22;22094;52.130;5.598;2022-11-04T06:44:25;7.50;99.90
23717;DHT22;22094;52.130;5.598;2022-11-04T06:46:51;7.60;99.90
23717;DHT22;22094;52.130;5.598;2022-11-04T06:49:19;7.70;99.90
23717;DHT22;22094;52.130;5.598;2022-11-04T06:51:47;7.70;99.90
23717;DHT22;22094;52.130;5.598;2022-11-04T06:54:13;7.70;99.90
23717;DHT22;22094;52.130;5.598;2022-11-04T06:56:39;7.60;99.90
23717;DHT22;22094;52.130;5.598;2022-11-04T06:59:05;7.60;99.90
23717;DHT22;22094;52.130;5.598;2022-11-04T07:01:34;7.60;99.90
23717;DHT22;22094;52.130;5.598;2022-11-04T07:04:01;7.60;99.90
23717;DHT22;22094;52.130;5.598;2022-11-04T07:06:29;7.60;99.90
23717;DHT22;22094;52.130;5.598;2022-11-04T07:08:57;7.60;99.90
23717;DHT22;22094;52.130;5.598;2022-11-04T07:11:24;7.40;99.90
23717;DHT22;22094;52.130;5.598;2022-11-04T07:13:50;7.60;99.90
23717;DHT22;22094;52.130;5.598;2022-11-04T07:16:17;7.60;99.90
23717;DHT22;22094;52.130;5.598;2022-11-04T07:18:43;7.60;99.90
23717;DHT22;22094;52.130;5.598;2022-11-04T07:21:09;7.60;99.90
23717;DHT22;22094;52.130;5.598;2022-11-04T07:23:36;7.60;99.90
23717;DHT22;22094;52.130;5.598;2022-11-04T07:26:03;7.80;99.90
23717;DHT22;22094;52.130;5.598;2022-11-04T07:30:57;7.70;99.90
23717;DHT22;22094;52.130;5.598;2022-11-04T07:33:23;7.60;99.90
23717;DHT22;22094;52.130;5.598;2022-11-04T07:35:49;7.70;99.90
23717;DHT22;22094;52.130;5.598;2022-11-04T07:38:14;7.50;99.90
23717;DHT22;22094;52.130;5.598;2022-11-04T07:40:40;7.80;99.90
23717;DHT22;22094;52.130;5.598;2022-11-04T07:43:05;7.50;99.90
23717;DHT22;22094;52.130;5.598;2022-11-04T07:45:31;7.70;99.90
23717;DHT22;22094;52.130;5.598;2022-11-04T07:47:57;7.80;99.90
23717;DHT22;22094;52.130;5.598;2022-11-04T07:50:23;7.50;99.90
23717;DHT22;22094;52.130;5.598;2022-11-04T07:52:48;7.80;99.90
23717;DHT22;22094;52.130;5.598;2022-11-04T07:55:18;10.30;99.90
23717;DHT22;22094;52.130;5.598;2022-11-04T07:57:45;7.90;99.90
23717;DHT22;22094;52.130;5.598;2022-11-04T08:00:11;7.90;99.90
23717;DHT22;22094;52.130;5.598;2022-11-04T08:02:36;8.00;99.90
23717;DHT22;22094;52.130;5.598;2022-11-04T08:05:02;7.80;99.90
23717;DHT22;22094;52.130;5.598;2022-11-04T08:09:56;8.30;99.90
23717;DHT22;22094;52.130;5.598;2022-11-04T08:14:49;7.90;99.90
23717;DHT22;22094;52.130;5.598;2022-11-04T08:17:15;8.20;99.90
23717;DHT22;22094;52.130;5.598;2022-11-04T08:19:40;8.40;99.90
23717;DHT22;22094;52.130;5.598;2022-11-04T08:22:06;8.50;99.90
23717;DHT22;22094;52.130;5.598;2022-11-04T08:24:32;8.40;99.90
23717;DHT22;22094;52.130;5.598;2022-11-04T08:26:58;8.60;99.90
23717;DHT22;22094;52.130;5.598;2022-11-04T08:29:24;9.00;99.90
23717;DHT22;22094;52.130;5.598;2022-11-04T08:31:49;8.50;99.90
23717;DHT22;22094;52.130;5.598;2022-11-04T08:34:15;8.00;99.90
23717;DHT22;22094;52.130;5.598;2022-11-04T08:36:43;8.50;99.90
23717;DHT22;22094;52.130;5.598;2022-11-04T08:39:10;8.40;99.90
23717;DHT22;22094;52.130;5.598;2022-11-04T08:41:37;8.50;99.90
23717;DHT22;22094;52.130;5.598;2022-11-04T08:44:06;10.50;99.90
23717;DHT22;22094;52.130;5.598;2022-11-04T08:46:36;8.50;99.90
23717;DHT22;22094;52.130;5.598;2022-11-04T08:49:03;8.60;99.90
23717;DHT22;22094;52.130;5.598;2022-11-04T08:51:30;8.40;99.90
23717;DHT22;22094;52.130;5.598;2022-11-04T08:53:57;10.30;99.90
23717;DHT22;22094;52.130;5.598;2022-11-04T08:56:26;6.30;99.90
23717;DHT22;22094;52.130;5.598;2022-11-04T08:58:53;8.60;99.90
23717;DHT22;22094;52.130;5.598;2022-11-04T09:01:19;8.60;99.90
23717;DHT22;22094;52.130;5.598;2022-11-04T09:06:15;8.60;99.90
23717;DHT22;22094;52.130;5.598;2022-11-04T09:08:42;8.50;99.90
23717;DHT22;22094;52.130;5.598;2022-11-04T09:11:10;8.70;99.90
23717;DHT22;22094;52.130;5.598;2022-11-04T09:13:36;8.70;99.90
23717;DHT22;22094;52.130;5.598;2022-11-04T09:16:03;8.90;99.90
23717;DHT22;22094;52.130;5.598;2022-11-04T09:18:29;9.20;99.90
23717;DHT22;22094;52.130;5.598;2022-11-04T09:20:54;8.80;99.90
23717;DHT22;22094;52.130;5.598;2022-11-04T09:25:50;8.60;99.90
23717;DHT22;22094;52.130;5.598;2022-11-04T09:28:16;9.00;99.90
23717;DHT22;22094;52.130;5.598;2022-11-04T09:30:41;9.10;99.90
23717;DHT22;22094;52.130;5.598;2022-11-04T09:33:07;9.90;99.90
23717;DHT22;22094;52.130;5.598;2022-11-04T09:35:32;12.00;99.90
23717;DHT22;22094;52.130;5.598;2022-11-04T09:37:59;9.80;99.90
23717;DHT22;22094;52.130;5.598;2022-11-04T09:48:22;9.90;99.90
23717;DHT22;22094;52.130;5.598;2022-11-04T09:50:58;9.20;99.90
23717;DHT22;22094;52.130;5.598;2022-11-04T09:53:43;12.40;99.90
23717;DHT22;22094;52.130;5.598;2022-11-04T09:58:40;12.70;99.90
23717;DHT22;22094;52.130;5.598;2022-11-04T10:06:31;11.60;99.90
23717;DHT22;22094;52.130;5.598;2022-11-04T10:12:04;12.30;99.90
23717;DHT22;22094;52.130;5.598;2022-11-04T10:17:32;12.30;99.90
23717;DHT22;22094;52.130;5.598;2022-11-04T10:20:20;12.00;99.90
23717;DHT22;22094;52.130;5.598;2022-11-04T10:23:26;12.00;99.90
23717;DHT22;22094;52.130;5.598;2022-11-04T10:28:39;11.90;99.90
23717;DHT22;22094;52.130;5.598;2022-11-04T10:31:06;11.70;99.90
23717;DHT22;22094;52.130;5.598;2022-11-04T10:33:36;11.90;99.90
23717;DHT22;22094;52.130;5.598;2022-11-04T10:36:08;13.80;99.90
23717;DHT22;22094;52.130;5.598;2022-11-04T10:38:35;11.70;99.90
23717;DHT22;22094;52.130;5.598;2022-11-04T10:41:25;12.80;99.90
23717;DHT22;22094;52.130;5.598;2022-11-04T10:44:19;14.40;99.90
23717;DHT22;22094;52.130;5.598;2022-11-04T10:50:23;12.70;99.90
23717;DHT22;22094;52.130;5.598;2022-11-04T10:52:50;11.90;99.90
23717;DHT22;22094;52.130;5.598;2022-11-04T10:55:30;10.90;99.90
23717;DHT22;22094;52.130;5.598;2022-11-04T10:57:58;11.90;99.90
23717;DHT22;22094;52.130;5.598;2022-11-04T11:00:35;12.70;99.90
23717;DHT22;22094;52.130;5.598;2022-11-04T11:05:27;12.70;99.90
23717;DHT22;22094;52.130;5.598;2022-11-04T11:07:56;12.00;99.90
23717;DHT22;22094;52.130;5.598;2022-11-04T11:10:27;12.20;99.90
23717;DHT22;22094;52.130;5.598;2022-11-04T11:13:02;13.60;99.90
23717;DHT22;22094;52.130;5.598;2022-11-04T11:15:34;10.60;99.90
23717;DHT22;22094;52.130;5.598;2022-11-04T11:20:33;12.40;99.90
23717;DHT22;22094;52.130;5.598;2022-11-04T11:23:03;13.00;99.90
23717;DHT22;22094;52.130;5.598;2022-11-04T11:25:37;12.00;99.90
23717;DHT22;22094;52.130;5.598;2022-11-04T11:28:11;11.90;99.90
23717;DHT22;22094;52.130;5.598;2022-11-04T11:33:27;10.70;99.90
23717;DHT22;22094;52.130;5.598;2022-11-04T11:38:56;12.90;99.90
23717;DHT22;22094;52.130;5.598;2022-11-04T11:41:23;12.50;99.90
23717;DHT22;22094;52.130;5.598;2022-11-04T11:43:57;13.30;99.90
23717;DHT22;22094;52.130;5.598;2022-11-04T11:46:27;13.20;99.90
23717;DHT22;22094;52.130;5.598;2022-11-04T11:49:01;13.20;99.90
23717;DHT22;22094;52.130;5.598;2022-11-04T11:56:55;13.20;99.90
23717;DHT22;22094;52.130;5.598;2022-11-04T12:02:18;12.00;99.90
23717;DHT22;22094;52.130;5.598;2022-11-04T12:04:45;12.70;99.90
23717;DHT22;22094;52.130;5.598;2022-11-04T12:10:18;12.70;99.90
23717;DHT22;22094;52.130;5.598;2022-11-04T12:21:23;13.80;99.90
23717;DHT22;22094;52.130;5.598;2022-11-04T12:24:12;14.30;99.90
23717;DHT22;22094;52.130;5.598;2022-11-04T12:29:33;16.30;99.90
23717;DHT22;22094;52.130;5.598;2022-11-04T12:32:22;13.40;99.90
23717;DHT22;22094;52.130;5.598;2022-11-04T12:40:20;13.50;99.90
23717;DHT22;22094;52.130;5.598;2022-11-04T12:45:23;13.30;99.90
23717;DHT22;22094;52.130;5.598;2022-11-04T12:47:54;13.30;99.90
23717;DHT22;22094;52.130;5.598;2022-11-04T12:50:50;12.70;99.90
23717;DHT22;22094;52.130;5.598;2022-11-04T12:56:20;13.30;99.90
23717;DHT22;22094;52.130;5.598;2022-11-04T13:01:22;13.30;99.90
23717;DHT22;22094;52.130;5.598;2022-11-04T13:04:05;15.10;99.90
23717;DHT22;22094;52.130;5.598;2022-11-04T13:06:38;12.90;99.90
23717;DHT22;22094;52.130;5.598;2022-11-04T13:09:11;14.20;99.90
23717;DHT22;22094;52.130;5.598;2022-11-04T13:12:00;13.00;99.90
23717;DHT22;22094;52.130;5.598;2022-11-04T13:14:31;13.00;99.90
23717;DHT22;22094;52.130;5.598;2022-11-04T13:17:00;13.50;99.90
23717;DHT22;22094;52.130;5.598;2022-11-04T13:19:48;12.50;99.90
23717;DHT22;22094;52.130;5.598;2022-11-04T13:22:19;12.90;99.90
23717;DHT22;22094;52.130;5.598;2022-11-04T13:28:10;12.90;99.90
23717;DHT22;22094;52.130;5.598;2022-11-04T13:35:53;11.80;99.90
23717;DHT22;22094;52.130;5.598;2022-11-04T13:38:42;13.60;99.90
23717;DHT22;22094;52.130;5.598;2022-11-04T13:43:44;10.60;99.90
23717;DHT22;22094;52.130;5.598;2022-11-04T13:48:53;12.90;99.90
23717;DHT22;22094;52.130;5.598;2022-11-04T13:53:50;12.10;99.90
23717;DHT22;22094;52.130;5.598;2022-11-04T13:56:35;12.60;99.90
23717;DHT22;22094;52.130;5.598;2022-11-04T13:59:21;11.80;99.90
23717;DHT22;22094;52.130;5.598;2022-11-04T14:01:47;11.00;99.90
23717;DHT22;22094;52.130;5.598;2022-11-04T14:09:33;10.00;99.90
23717;DHT22;22094;52.130;5.598;2022-11-04T14:12:29;9.90;99.90
23717;DHT22;22094;52.130;5.598;2022-11-04T14:15:10;9.80;99.90
23717;DHT22;22094;52.130;5.598;2022-11-04T14:25:30;10.00;99.90
23717;DHT22;22094;52.130;5.598;2022-11-04T14:28:02;9.80;99.90
23717;DHT22;22094;52.130;5.598;2022-11-04T14:31:01;10.20;99.90
23717;DHT22;22094;52.130;5.598;2022-11-04T14:33:31;10.50;99.90
23717;DHT22;22094;52.130;5.598;2022-11-04T14:41:55;10.30;99.90
23717;DHT22;22094;52.130;5.598;2022-11-04T14:47:25;8.10;99.90
23717;DHT22;22094;52.130;5.598;2022-11-04T14:52:35;9.90;99.90
23717;DHT22;22094;52.130;5.598;2022-11-04T14:55:13;10.20;99.90
23717;DHT22;22094;52.130;5.598;2022-11-04T14:57:47;10.20;99.90
23717;DHT22;22094;52.130;5.598;2022-11-04T15:05:51;10.00;99.90
23717;DHT22;22094;52.130;5.598;2022-11-04T15:08:24;10.00;99.90
23717;DHT22;22094;52.130;5.598;2022-11-04T15:10:50;9.90;99.90
23717;DHT22;22094;52.130;5.598;2022-11-04T15:13:19;10.10;99.90
23717;DHT22;22094;52.130;5.598;2022-11-04T15:15:46;9.90;99.90
23717;DHT22;22094;52.130;5.598;2022-11-04T15:18:19;9.90;99.90
23717;DHT22;22094;52.130;5.598;2022-11-04T15:20:48;9.90;99.90
23717;DHT22;22094;52.130;5.598;2022-11-04T15:23:17;10.00;99.90
23717;DHT22;22094;52.130;5.598;2022-11-04T15:25:46;10.00;99.90
23717;DHT22;22094;52.130;5.598;2022-11-04T15:28:17;10.00;99.90
23717;DHT22;22094;52.130;5.598;2022-11-04T15:30:59;10.10;99.90
23717;DHT22;22094;52.130;5.598;2022-11-04T15:33:25;10.00;99.90
23717;DHT22;22094;52.130;5.598;2022-11-04T15:35:52;10.00;99.90
23717;DHT22;22094;52.130;5.598;2022-11-04T15:38:19;10.00;99.90
23717;DHT22;22094;52.130;5.598;2022-11-04T15:40:45;9.90;99.90
23717;DHT22;22094;52.130;5.598;2022-11-04T15:43:13;9.80;99.90
23717;DHT22;22094;52.130;5.598;2022-11-04T15:48:29;9.80;99.90
23717;DHT22;22094;52.130;5.598;2022-11-04T15:51:12;9.50;99.90
23717;DHT22;22094;52.130;5.598;2022-11-04T15:53:53;9.40;99.90
23717;DHT22;22094;52.130;5.598;2022-11-04T15:56:23;9.30;99.90
23717;DHT22;22094;52.130;5.598;2022-11-04T15:58:51;10.00;99.90
23717;DHT22;22094;52.130;5.598;2022-11-04T16:01:18;9.40;99.90
23717;DHT22;22094;52.130;5.598;2022-11-04T16:03:53;9.10;99.90
23717;DHT22;22094;52.130;5.598;2022-11-04T16:06:40;9.00;99.90
23717;DHT22;22094;52.130;5.598;2022-11-04T16:09:19;8.90;99.90
23717;DHT22;22094;52.130;5.598;2022-11-04T16:12:23;8.90;99.90
23717;DHT22;22094;52.130;5.598;2022-11-04T16:14:53;8.80;99.90
23717;DHT22;22094;52.130;5.598;2022-11-04T16:17:19;8.80;99.90
23717;DHT22;22094;52.130;5.598;2022-11-04T16:19:54;8.70;99.90
23717;DHT22;22094;52.130;5.598;2022-11-04T16:22:38;8.70;99.90
23717;DHT22;22094;52.130;5.598;2022-11-04T16:25:07;8.70;99.90
23717;DHT22;22094;52.130;5.598;2022-11-04T16:27:36;8.70;99.90
23717;DHT22;22094;52.130;5.598;2022-11-04T16:30:19;8.70;99.90
23717;DHT22;22094;52.130;5.598;2022-11-04T16:32:50;8.60;99.90
23717;DHT22;22094;52.130;5.598;2022-11-04T16:35:22;8.60;99.90
23717;DHT22;22094;52.130;5.598;2022-11-04T16:37:48;8.60;99.90
23717;DHT22;22094;52.130;5.598;2022-11-04T16:40:15;8.60;99.90
23717;DHT22;22094;52.130;5.598;2022-11-04T16:42:42;8.50;99.90
23717;DHT22;22094;52.130;5.598;2022-11-04T16:45:25;8.50;99.90
23717;DHT22;22094;52.130;5.598;2022-11-04T16:47:52;8.50;99.90
23717;DHT22;22094;52.130;5.598;2022-11-04T16:50:18;8.40;99.90
23717;DHT22;22094;52.130;5.598;2022-11-04T16:52:44;8.40;99.90
23717;DHT22;22094;52.130;5.598;2022-11-04T16:55:11;8.50;99.90
23717;DHT22;22094;52.130;5.598;2022-11-04T16:57:37;8.50;99.90
23717;DHT22;22094;52.130;5.598;2022-11-04T17:00:04;8.50;99.90
23717;DHT22;22094;52.130;5.598;2022-11-04T17:02:33;8.50;99.90
23717;DHT22;22094;52.130;5.598;2022-11-04T17:05:08;8.50;99.90
23717;DHT22;22094;52.130;5.598;2022-11-04T17:07:36;8.50;99.90
23717;DHT22;22094;52.130;5.598;2022-11-04T17:10:04;8.50;99.90
23717;DHT22;22094;52.130;5.598;2022-11-04T17:12:34;8.50;99.90
23717;DHT22;22094;52.130;5.598;2022-11-04T17:15:00;8.50;99.90
23717;DHT22;22094;52.130;5.598;2022-11-04T17:17:25;8.50;99.90
23717;DHT22;22094;52.130;5.598;2022-11-04T17:19:51;8.50;99.90
23717;DHT22;22094;52.130;5.598;2022-11-04T17:22:16;8.50;99.90
23717;DHT22;22094;52.130;5.598;2022-11-04T17:24:42;8.50;99.90
23717;DHT22;22094;52.130;5.598;2022-11-04T17:27:07;8.40;99.90
23717;DHT22;22094;52.130;5.598;2022-11-04T17:29:33;8.40;99.90
23717;DHT22;22094;52.130;5.598;2022-11-04T17:32:01;8.40;99.90
23717;DHT22;22094;52.130;5.598;2022-11-04T17:34:26;8.40;99.90
23717;DHT22;22094;52.130;5.598;2022-11-04T17:36:52;8.30;99.90
23717;DHT22;22094;52.130;5.598;2022-11-04T17:39:18;8.30;99.90
23717;DHT22;22094;52.130;5.598;2022-11-04T17:41:44;8.40;99.90
23717;DHT22;22094;52.130;5.598;2022-11-04T17:44:28;8.30;99.90
23717;DHT22;22094;52.130;5.598;2022-11-04T17:46:53;8.30;99.90
23717;DHT22;22094;52.130;5.598;2022-11-04T17:49:21;8.30;99.90
23717;DHT22;22094;52.130;5.598;2022-11-04T17:51:53;8.20;99.90
23717;DHT22;22094;52.130;5.598;2022-11-04T17:54:19;8.20;99.90
23717;DHT22;22094;52.130;5.598;2022-11-04T17:56:46;8.20;99.90
23717;DHT22;22094;52.130;5.598;2022-11-04T17:59:13;8.10;99.90
23717;DHT22;22094;52.130;5.598;2022-11-04T18:01:39;8.10;99.90
23717;DHT22;22094;52.130;5.598;2022-11-04T18:04:05;8.10;99.90
23717;DHT22;22094;52.130;5.598;2022-11-04T18:06:34;8.10;99.90
23717;DHT22;22094;52.130;5.598;2022-11-04T18:09:00;8.10;99.90
23717;DHT22;22094;52.130;5.598;2022-11-04T18:11:28;8.10;99.90
23717;DHT22;22094;52.130;5.598;2022-11-04T18:14:13;8.00;99.90
23717;DHT22;22094;52.130;5.598;2022-11-04T18:16:44;8.00;99.90
23717;DHT22;22094;52.130;5.598;2022-11-04T18:19:10;8.10;99.90
23717;DHT22;22094;52.130;5.598;2022-11-04T18:21:36;8.00;99.90
23717;DHT22;22094;52.130;5.598;2022-11-04T18:24:02;7.90;99.90
23717;DHT22;22094;52.130;5.598;2022-11-04T18:26:28;7.80;99.90
23717;DHT22;22094;52.130;5.598;2022-11-04T18:28:54;7.80;99.90
23717;DHT22;22094;52.130;5.598;2022-11-04T18:31:26;7.80;99.90
23717;DHT22;22094;52.130;5.598;2022-11-04T18:33:51;7.80;99.90
23717;DHT22;22094;52.130;5.598;2022-11-04T18:36:17;7.80;99.90
23717;DHT22;22094;52.130;5.598;2022-11-04T18:38:43;7.80;99.90
23717;DHT22;22094;52.130;5.598;2022-11-04T18:41:08;7.80;99.90
23717;DHT22;22094;52.130;5.598;2022-11-04T18:43:34;7.70;99.90
23717;DHT22;22094;52.130;5.598;2022-11-04T18:46:06;7.60;99.90
23717;DHT22;22094;52.130;5.598;2022-11-04T18:48:32;7.60;99.90